sensor_id;sensor_type;location;lat;lon;timestamp;temperature;humidity
74869;DHT22;63419;42.262;12.210;2023-02-04T00:01:17;5.30;99.90
74869;DHT22;63419;42.262;12.210;2023-02-04T00:03:44;5.20;99.90
74869;DHT22;63419;42.262;12.210;2023-02-04T00:06:11;5.30;99.90
74869;DHT22;63419;42.262;12.210;2023-02-04T00:08:39;5.30;99.90
74869;DHT22;63419;42.262;12.210;2023-02-04T00:11:06;5.30;99.90
74869;DHT22;63419;42.262;12.210;2023-02-04T00:13:33;5.30;99.90
74869;DHT22;63419;42.262;12.210;2023-02-04T00:16:00;5.30;99.90
74869;DHT22;63419;42.262;12.210;2023-02-04T00:18:28;5.20;99.90
74869;DHT22;63419;42.262;12.210;2023-02-04T00:20:55;5.20;99.90
74869;DHT22;63419;42.262;12.210;2023-02-04T00:23:23;5.10;99.90
74869;DHT22;63419;42.262;12.210;2023-02-04T00:25:50;5.20;99.90
74869;DHT22;63419;42.262;12.210;2023-02-04T00:28:17;5.30;99.90
74869;DHT22;63419;42.262;12.210;2023-02-04T00:30:44;5.20;99.90
74869;DHT22;63419;42.262;12.210;2023-02-04T00:33:13;5.00;99.90
74869;DHT22;63419;42.262;12.210;2023-02-04T00:35:40;5.00;99.90
74869;DHT22;63419;42.262;12.210;2023-02-04T00:38:07;4.90;99.90
74869;DHT22;63419;42.262;12.210;2023-02-04T00:40:34;4.70;99.90
74869;DHT22;63419;42.262;12.210;2023-02-04T00:43:03;4.70;99.90
74869;DHT22;63419;42.262;12.210;2023-02-04T00:45:30;4.70;99.90
74869;DHT22;63419;42.262;12.210;2023-02-04T00:47:57;4.70;99.90
74869;DHT22;63419;42.262;12.210;2023-02-04T00:50:24;4.80;99.90
74869;DHT22;63419;42.262;12.210;2023-02-04T00:52:52;4.80;99.90
74869;DHT22;63419;42.262;12.210;2023-02-04T00:55:19;4.70;99.90
74869;DHT22;63419;42.262;12.210;2023-02-04T00:57:46;4.70;99.90
74869;DHT22;63419;42.262;12.210;2023-02-04T01:00:14;4.80;99.90
74869;DHT22;63419;42.262;12.210;2023-02-04T01:02:43;4.80;99.90
74869;DHT22;63419;42.262;12.210;2023-02-04T01:05:10;4.80;99.90
74869;DHT22;63419;42.262;12.210;2023-02-04T01:07:37;4.80;99.90
74869;DHT22;63419;42.262;12.210;2023-02-04T01:10:05;4.80;99.90
74869;DHT22;63419;42.262;12.210;2023-02-04T01:12:32;4.70;99.90
74869;DHT22;63419;42.262;12.210;2023-02-04T01:15:00;4.70;99.90
74869;DHT22;63419;42.262;12.210;2023-02-04T01:17:27;4.70;99.90
74869;DHT22;63419;42.262;12.210;2023-02-04T01:19:54;4.70;99.90
74869;DHT22;63419;42.262;12.210;2023-02-04T01:22:21;4.70;99.90
74869;DHT22;63419;42.262;12.210;2023-02-04T01:24:49;4.80;99.90
74869;DHT22;63419;42.262;12.210;2023-02-04T01:27:16;4.90;99.90
74869;DHT22;63419;42.262;12.210;2023-02-04T01:29:44;5.00;99.90
74869;DHT22;63419;42.262;12.210;2023-02-04T01:32:11;5.10;99.90
74869;DHT22;63419;42.262;12.210;2023-02-04T01:34:38;4.20;99.90
74869;DHT22;63419;42.262;12.210;2023-02-04T01:37:05;3.60;99.90
74869;DHT22;63419;42.262;12.210;2023-02-04T01:39:33;3.80;99.90
74869;DHT22;63419;42.262;12.210;2023-02-04T01:42:00;3.80;99.90
74869;DHT22;63419;42.262;12.210;2023-02-04T01:44:28;4.20;99.90
74869;DHT22;63419;42.262;12.210;2023-02-04T01:46:56;4.30;99.90
74869;DHT22;63419;42.262;12.210;2023-02-04T01:49:23;3.90;99.90
74869;DHT22;63419;42.262;12.210;2023-02-04T01:51:51;4.00;99.90
74869;DHT22;63419;42.262;12.210;2023-02-04T01:54:18;4.00;99.90
74869;DHT22;63419;42.262;12.210;2023-02-04T01:56:47;4.10;99.90
74869;DHT22;63419;42.262;12.210;2023-02-04T01:59:18;4.20;99.90
74869;DHT22;63419;42.262;12.210;2023-02-04T02:01:47;4.30;99.90
74869;DHT22;63419;42.262;12.210;2023-02-04T02:04:38;4.40;99.90
74869;DHT22;63419;42.262;12.210;2023-02-04T02:07:07;4.50;99.90
74869;DHT22;63419;42.262;12.210;2023-02-04T02:09:38;4.40;99.90
74869;DHT22;63419;42.262;12.210;2023-02-04T02:12:07;4.40;99.90
74869;DHT22;63419;42.262;12.210;2023-02-04T02:14:36;4.40;99.90
74869;DHT22;63419;42.262;12.210;2023-02-04T02:17:04;4.30;99.90
74869;DHT22;63419;42.262;12.210;2023-02-04T02:19:35;4.30;99.90
74869;DHT22;63419;42.262;12.210;2023-02-04T02:22:15;4.30;99.90
74869;DHT22;63419;42.262;12.210;2023-02-04T02:24:57;4.40;99.90
74869;DHT22;63419;42.262;12.210;2023-02-04T02:27:26;4.30;99.90
74869;DHT22;63419;42.262;12.210;2023-02-04T02:29:58;4.30;99.90
74869;DHT22;63419;42.262;12.210;2023-02-04T02:32:26;4.30;99.90
74869;DHT22;63419;42.262;12.210;2023-02-04T02:34:56;4.40;99.90
74869;DHT22;63419;42.262;12.210;2023-02-04T02:37:25;4.40;99.90
74869;DHT22;63419;42.262;12.210;2023-02-04T02:39:55;4.40;99.90
74869;DHT22;63419;42.262;12.210;2023-02-04T02:42:25;4.40;99.90
74869;DHT22;63419;42.262;12.210;2023-02-04T02:44:58;3.80;99.90
74869;DHT22;63419;42.262;12.210;2023-02-04T02:47:52;3.70;99.90
74869;DHT22;63419;42.262;12.210;2023-02-04T02:51:14;3.60;99.90
74869;DHT22;63419;42.262;12.210;2023-02-04T02:53:45;3.70;99.90
74869;DHT22;63419;42.262;12.210;2023-02-04T02:56:17;3.70;99.90
74869;DHT22;63419;42.262;12.210;2023-02-04T02:58:46;3.60;99.90
74869;DHT22;63419;42.262;12.210;2023-02-04T03:01:19;3.60;99.90
74869;DHT22;63419;42.262;12.210;2023-02-04T03:03:52;3.60;99.90
74869;DHT22;63419;42.262;12.210;2023-02-04T03:06:24;3.60;99.90
74869;DHT22;63419;42.262;12.210;2023-02-04T03:09:00;3.70;99.90
74869;DHT22;63419;42.262;12.210;2023-02-04T03:11:31;3.80;99.90
74869;DHT22;63419;42.262;12.210;2023-02-04T03:14:03;3.80;99.90
74869;DHT22;63419;42.262;12.210;2023-02-04T03:16:34;3.90;99.90
74869;DHT22;63419;42.262;12.210;2023-02-04T03:19:06;4.00;99.90
74869;DHT22;63419;42.262;12.210;2023-02-04T03:21:37;4.30;99.90
74869;DHT22;63419;42.262;12.210;2023-02-04T03:24:07;4.60;99.90
74869;DHT22;63419;42.262;12.210;2023-02-04T03:26:37;4.70;99.90
74869;DHT22;63419;42.262;12.210;2023-02-04T03:29:10;4.80;99.90
74869;DHT22;63419;42.262;12.210;2023-02-04T03:31:40;4.80;99.90
74869;DHT22;63419;42.262;12.210;2023-02-04T03:34:09;4.90;99.90
74869;DHT22;63419;42.262;12.210;2023-02-04T03:36:38;4.90;99.90
74869;DHT22;63419;42.262;12.210;2023-02-04T03:39:07;5.00;99.90
74869;DHT22;63419;42.262;12.210;2023-02-04T03:41:36;4.90;99.90
74869;DHT22;63419;42.262;12.210;2023-02-04T03:44:05;4.90;99.90
74869;DHT22;63419;42.262;12.210;2023-02-04T03:46:33;5.00;99.90
74869;DHT22;63419;42.262;12.210;2023-02-04T03:49:02;5.00;99.90
74869;DHT22;63419;42.262;12.210;2023-02-04T03:51:33;4.90;99.90
74869;DHT22;63419;42.262;12.210;2023-02-04T03:54:02;4.90;99.90
74869;DHT22;63419;42.262;12.210;2023-02-04T03:56:32;5.00;99.90
74869;DHT22;63419;42.262;12.210;2023-02-04T03:59:01;5.00;99.90
74869;DHT22;63419;42.262;12.210;2023-02-04T04:01:29;4.90;99.90
74869;DHT22;63419;42.262;12.210;2023-02-04T04:03:58;4.90;99.90
74869;DHT22;63419;42.262;12.210;2023-02-04T04:06:27;4.80;99.90
74869;DHT22;63419;42.262;12.210;2023-02-04T04:08:56;4.90;99.90
74869;DHT22;63419;42.262;12.210;2023-02-04T04:11:29;4.90;99.90
74869;DHT22;63419;42.262;12.210;2023-02-04T04:13:59;4.80;99.90
74869;DHT22;63419;42.262;12.210;2023-02-04T04:16:30;4.90;99.90
74869;DHT22;63419;42.262;12.210;2023-02-04T04:19:00;4.90;99.90
74869;DHT22;63419;42.262;12.210;2023-02-04T04:21:30;5.00;99.90
74869;DHT22;63419;42.262;12.210;2023-02-04T04:23:58;5.10;99.90
74869;DHT22;63419;42.262;12.210;2023-02-04T04:26:26;5.10;99.90
74869;DHT22;63419;42.262;12.210;2023-02-04T04:28:56;5.00;99.90
74869;DHT22;63419;42.262;12.210;2023-02-04T04:31:24;5.00;99.90
74869;DHT22;63419;42.262;12.210;2023-02-04T04:33:56;5.10;99.90
74869;DHT22;63419;42.262;12.210;2023-02-04T04:36:25;5.10;99.90
74869;DHT22;63419;42.262;12.210;2023-02-04T04:38:53;5.10;99.90
74869;DHT22;63419;42.262;12.210;2023-02-04T04:41:25;5.20;99.90
74869;DHT22;63419;42.262;12.210;2023-02-04T04:43:54;5.20;99.90
74869;DHT22;63419;42.262;12.210;2023-02-04T04:46:23;5.20;99.90
74869;DHT22;63419;42.262;12.210;2023-02-04T04:48:53;5.30;99.90
74869;DHT22;63419;42.262;12.210;2023-02-04T04:51:23;5.30;99.90
74869;DHT22;63419;42.262;12.210;2023-02-04T04:54:01;5.20;99.90
74869;DHT22;63419;42.262;12.210;2023-02-04T04:56:30;5.30;99.90
74869;DHT22;63419;42.262;12.210;2023-02-04T04:58:58;5.20;99.90
74869;DHT22;63419;42.262;12.210;2023-02-04T05:01:27;5.20;99.90
74869;DHT22;63419;42.262;12.210;2023-02-04T05:03:57;5.30;99.90
74869;DHT22;63419;42.262;12.210;2023-02-04T05:06:27;5.30;99.90
74869;DHT22;63419;42.262;12.210;2023-02-04T05:08:56;5.30;99.90
74869;DHT22;63419;42.262;12.210;2023-02-04T05:11:25;5.30;99.90
74869;DHT22;63419;42.262;12.210;2023-02-04T05:13:55;5.30;99.90
74869;DHT22;63419;42.262;12.210;2023-02-04T05:16:25;5.30;99.90
74869;DHT22;63419;42.262;12.210;2023-02-04T05:18:55;5.30;99.90
74869;DHT22;63419;42.262;12.210;2023-02-04T05:21:23;5.40;99.90
74869;DHT22;63419;42.262;12.210;2023-02-04T05:23:52;5.30;99.90
74869;DHT22;63419;42.262;12.210;2023-02-04T05:26:25;5.30;99.90
74869;DHT22;63419;42.262;12.210;2023-02-04T05:28:57;5.30;99.90
74869;DHT22;63419;42.262;12.210;2023-02-04T05:31:30;5.30;99.90
74869;DHT22;63419;42.262;12.210;2023-02-04T05:33:59;5.20;99.90
74869;DHT22;63419;42.262;12.210;2023-02-04T05:36:33;5.30;99.90
74869;DHT22;63419;42.262;12.210;2023-02-04T05:39:02;5.30;99.90
74869;DHT22;63419;42.262;12.210;2023-02-04T05:41:34;5.30;99.90
74869;DHT22;63419;42.262;12.210;2023-02-04T05:44:07;5.40;99.90
74869;DHT22;63419;42.262;12.210;2023-02-04T05:46:36;5.30;99.90
74869;DHT22;63419;42.262;12.210;2023-02-04T05:49:06;5.30;99.90
74869;DHT22;63419;42.262;12.210;2023-02-04T05:51:36;5.30;99.90
74869;DHT22;63419;42.262;12.210;2023-02-04T05:54:05;5.20;99.90
74869;DHT22;63419;42.262;12.210;2023-02-04T05:56:35;5.30;99.90
74869;DHT22;63419;42.262;12.210;2023-02-04T05:59:04;5.20;99.90
74869;DHT22;63419;42.262;12.210;2023-02-04T06:01:33;5.20;99.90
74869;DHT22;63419;42.262;12.210;2023-02-04T06:04:04;5.30;99.90
74869;DHT22;63419;42.262;12.210;2023-02-04T06:06:34;5.20;99.90
74869;DHT22;63419;42.262;12.210;2023-02-04T06:09:03;5.30;99.90
74869;DHT22;63419;42.262;12.210;2023-02-04T06:11:35;5.20;99.90
74869;DHT22;63419;42.262;12.210;2023-02-04T06:14:03;5.10;99.90
74869;DHT22;63419;42.262;12.210;2023-02-04T06:16:32;5.10;99.90
74869;DHT22;63419;42.262;12.210;2023-02-04T06:19:04;5.10;99.90
74869;DHT22;63419;42.262;12.210;2023-02-04T06:21:33;5.10;99.90
74869;DHT22;63419;42.262;12.210;2023-02-04T06:24:02;5.10;99.90
74869;DHT22;63419;42.262;12.210;2023-02-04T06:26:35;5.10;99.90
74869;DHT22;63419;42.262;12.210;2023-02-04T06:29:05;5.00;99.90
74869;DHT22;63419;42.262;12.210;2023-02-04T06:31:34;4.90;99.90
74869;DHT22;63419;42.262;12.210;2023-02-04T06:34:05;4.90;99.90
74869;DHT22;63419;42.262;12.210;2023-02-04T06:36:35;5.00;99.90
74869;DHT22;63419;42.262;12.210;2023-02-04T06:39:04;5.00;99.90
74869;DHT22;63419;42.262;12.210;2023-02-04T06:41:34;5.10;99.90
74869;DHT22;63419;42.262;12.210;2023-02-04T06:44:11;5.10;99.90
74869;DHT22;63419;42.262;12.210;2023-02-04T06:46:40;5.20;99.90
74869;DHT22;63419;42.262;12.210;2023-02-04T06:49:09;5.30;99.90
74869;DHT22;63419;42.262;12.210;2023-02-04T06:51:38;5.40;99.90
74869;DHT22;63419;42.262;12.210;2023-02-04T06:54:07;5.50;99.90
74869;DHT22;63419;42.262;12.210;2023-02-04T06:56:37;5.50;99.90
74869;DHT22;63419;42.262;12.210;2023-02-04T06:59:05;5.70;99.90
74869;DHT22;63419;42.262;12.210;2023-02-04T07:01:34;5.70;99.90
74869;DHT22;63419;42.262;12.210;2023-02-04T07:04:04;5.80;99.90
74869;DHT22;63419;42.262;12.210;2023-02-04T07:06:36;6.00;99.90
74869;DHT22;63419;42.262;12.210;2023-02-04T07:09:06;6.10;99.90
74869;DHT22;63419;42.262;12.210;2023-02-04T07:11:34;6.20;99.90
74869;DHT22;63419;42.262;12.210;2023-02-04T07:14:03;6.40;99.90
74869;DHT22;63419;42.262;12.210;2023-02-04T07:16:32;6.50;99.90
74869;DHT22;63419;42.262;12.210;2023-02-04T07:19:03;6.60;99.90
74869;DHT22;63419;42.262;12.210;2023-02-04T07:21:33;6.80;99.90
74869;DHT22;63419;42.262;12.210;2023-02-04T07:24:02;6.80;99.90
74869;DHT22;63419;42.262;12.210;2023-02-04T07:26:31;6.90;99.90
74869;DHT22;63419;42.262;12.210;2023-02-04T07:29:03;7.00;99.90
74869;DHT22;63419;42.262;12.210;2023-02-04T07:31:37;7.00;99.90
74869;DHT22;63419;42.262;12.210;2023-02-04T07:34:07;7.10;99.90
74869;DHT22;63419;42.262;12.210;2023-02-04T07:36:35;7.20;99.90
74869;DHT22;63419;42.262;12.210;2023-02-04T07:41:52;7.40;99.90
74869;DHT22;63419;42.262;12.210;2023-02-04T07:44:21;7.60;99.90
74869;DHT22;63419;42.262;12.210;2023-02-04T07:46:51;7.70;99.90
74869;DHT22;63419;42.262;12.210;2023-02-04T07:49:19;7.90;99.90
74869;DHT22;63419;42.262;12.210;2023-02-04T07:51:52;8.00;99.90
74869;DHT22;63419;42.262;12.210;2023-02-04T07:54:20;8.20;99.90
74869;DHT22;63419;42.262;12.210;2023-02-04T07:56:50;8.30;99.90
74869;DHT22;63419;42.262;12.210;2023-02-04T07:59:19;8.40;99.90
74869;DHT22;63419;42.262;12.210;2023-02-04T08:01:48;8.50;99.90
74869;DHT22;63419;42.262;12.210;2023-02-04T08:04:17;8.70;99.90
74869;DHT22;63419;42.262;12.210;2023-02-04T08:06:46;8.80;99.90
74869;DHT22;63419;42.262;12.210;2023-02-04T08:09:14;8.90;99.90
74869;DHT22;63419;42.262;12.210;2023-02-04T08:11:47;9.00;99.90
74869;DHT22;63419;42.262;12.210;2023-02-04T08:14:17;9.00;99.90
74869;DHT22;63419;42.262;12.210;2023-02-04T08:16:47;9.10;99.90
74869;DHT22;63419;42.262;12.210;2023-02-04T08:19:16;9.10;99.90
74869;DHT22;63419;42.262;12.210;2023-02-04T08:21:49;9.10;99.90
74869;DHT22;63419;42.262;12.210;2023-02-04T08:24:18;9.10;99.90
74869;DHT22;63419;42.262;12.210;2023-02-04T08:26:46;9.10;99.90
74869;DHT22;63419;42.262;12.210;2023-02-04T08:29:17;9.20;99.90
74869;DHT22;63419;42.262;12.210;2023-02-04T08:31:46;9.20;99.90
74869;DHT22;63419;42.262;12.210;2023-02-04T08:34:16;9.30;99.90
74869;DHT22;63419;42.262;12.210;2023-02-04T08:36:44;9.40;99.90
74869;DHT22;63419;42.262;12.210;2023-02-04T08:39:18;9.30;99.90
74869;DHT22;63419;42.262;12.210;2023-02-04T08:41:47;9.40;99.90
74869;DHT22;63419;42.262;12.210;2023-02-04T08:44:18;9.50;99.90
74869;DHT22;63419;42.262;12.210;2023-02-04T08:46:46;9.50;99.90
74869;DHT22;63419;42.262;12.210;2023-02-04T08:49:15;9.70;99.90
74869;DHT22;63419;42.262;12.210;2023-02-04T08:51:43;9.60;99.90
74869;DHT22;63419;42.262;12.210;2023-02-04T08:54:11;9.80;99.90
74869;DHT22;63419;42.262;12.210;2023-02-04T08:56:39;9.80;99.90
74869;DHT22;63419;42.262;12.210;2023-02-04T08:59:07;9.90;99.90
74869;DHT22;63419;42.262;12.210;2023-02-04T09:02:03;10.00;99.90
74869;DHT22;63419;42.262;12.210;2023-02-04T09:04:36;10.20;99.90
74869;DHT22;63419;42.262;12.210;2023-02-04T09:07:04;10.20;99.90
74869;DHT22;63419;42.262;12.210;2023-02-04T09:09:34;10.20;99.90
74869;DHT22;63419;42.262;12.210;2023-02-04T09:12:02;10.20;99.90
74869;DHT22;63419;42.262;12.210;2023-02-04T09:14:31;10.20;99.90
74869;DHT22;63419;42.262;12.210;2023-02-04T09:17:02;10.20;99.90
74869;DHT22;63419;42.262;12.210;2023-02-04T09:19:32;10.30;99.90
74869;DHT22;63419;42.262;12.210;2023-02-04T09:22:01;10.40;99.90
74869;DHT22;63419;42.262;12.210;2023-02-04T09:24:30;10.40;99.90
74869;DHT22;63419;42.262;12.210;2023-02-04T09:27:01;10.40;99.90
74869;DHT22;63419;42.262;12.210;2023-02-04T09:29:30;10.40;99.90
74869;DHT22;63419;42.262;12.210;2023-02-04T09:31:59;10.50;99.90
74869;DHT22;63419;42.262;12.210;2023-02-04T09:34:27;10.40;99.90
74869;DHT22;63419;42.262;12.210;2023-02-04T09:36:56;10.50;99.90
74869;DHT22;63419;42.262;12.210;2023-02-04T09:39:24;10.50;99.90
74869;DHT22;63419;42.262;12.210;2023-02-04T09:41:53;10.80;99.90
74869;DHT22;63419;42.262;12.210;2023-02-04T09:44:25;11.10;99.90
74869;DHT22;63419;42.262;12.210;2023-02-04T09:46:59;11.10;99.90
74869;DHT22;63419;42.262;12.210;2023-02-04T09:49:29;11.20;99.90
74869;DHT22;63419;42.262;12.210;2023-02-04T09:56:11;10.80;99.90
74869;DHT22;63419;42.262;12.210;2023-02-04T09:58:42;11.00;99.90
74869;DHT22;63419;42.262;12.210;2023-02-04T10:06:17;11.70;99.90
74869;DHT22;63419;42.262;12.210;2023-02-04T10:20:56;11.80;99.90
74869;DHT22;63419;42.262;12.210;2023-02-04T10:23:40;11.70;99.90
74869;DHT22;63419;42.262;12.210;2023-02-04T10:26:12;12.10;99.90
74869;DHT22;63419;42.262;12.210;2023-02-04T10:28:42;12.40;99.90
74869;DHT22;63419;42.262;12.210;2023-02-04T10:31:37;12.30;99.90
74869;DHT22;63419;42.262;12.210;2023-02-04T10:34:17;11.80;99.90
74869;DHT22;63419;42.262;12.210;2023-02-04T10:36:55;11.50;99.90
74869;DHT22;63419;42.262;12.210;2023-02-04T10:39:28;11.20;99.90
74869;DHT22;63419;42.262;12.210;2023-02-04T10:41:58;10.90;99.90
74869;DHT22;63419;42.262;12.210;2023-02-04T10:44:27;10.70;99.90
74869;DHT22;63419;42.262;12.210;2023-02-04T10:47:14;10.90;99.90
74869;DHT22;63419;42.262;12.210;2023-02-04T10:50:06;10.70;99.90
74869;DHT22;63419;42.262;12.210;2023-02-04T10:52:46;10.40;99.90
74869;DHT22;63419;42.262;12.210;2023-02-04T10:55:22;11.10;99.90
74869;DHT22;63419;42.262;12.210;2023-02-04T10:57:53;11.20;99.90
74869;DHT22;63419;42.262;12.210;2023-02-04T11:00:23;11.40;99.90
74869;DHT22;63419;42.262;12.210;2023-02-04T11:05:45;11.20;99.90
74869;DHT22;63419;42.262;12.210;2023-02-04T11:08:24;11.80;99.90
74869;DHT22;63419;42.262;12.210;2023-02-04T11:11:13;11.50;99.90
74869;DHT22;63419;42.262;12.210;2023-02-04T11:26:39;11.70;99.90
74869;DHT22;63419;42.262;12.210;2023-02-04T11:29:21;12.00;99.90
74869;DHT22;63419;42.262;12.210;2023-02-04T11:31:56;11.50;99.90
74869;DHT22;63419;42.262;12.210;2023-02-04T11:34:28;11.50;99.90
74869;DHT22;63419;42.262;12.210;2023-02-04T11:37:15;11.70;99.90
74869;DHT22;63419;42.262;12.210;2023-02-04T11:39:46;12.30;99.90
74869;DHT22;63419;42.262;12.210;2023-02-04T11:42:23;12.30;99.90
74869;DHT22;63419;42.262;12.210;2023-02-04T11:45:02;12.50;99.90
74869;DHT22;63419;42.262;12.210;2023-02-04T11:47:40;13.10;99.90
74869;DHT22;63419;42.262;12.210;2023-02-04T12:54:29;13.10;99.90
74869;DHT22;63419;42.262;12.210;2023-02-04T12:56:56;13.30;99.90
74869;DHT22;63419;42.262;12.210;2023-02-04T12:59:28;13.80;99.90
74869;DHT22;63419;42.262;12.210;2023-02-04T13:01:57;14.00;99.90
74869;DHT22;63419;42.262;12.210;2023-02-04T13:04:24;14.00;99.90
74869;DHT22;63419;42.262;12.210;2023-02-04T13:06:51;13.20;99.90
74869;DHT22;63419;42.262;12.210;2023-02-04T14:15:07;17.80;97.20
74869;DHT22;63419;42.262;12.210;2023-02-04T14:17:35;18.10;98.20
74869;DHT22;63419;42.262;12.210;2023-02-04T14:20:02;17.30;99.30
74869;DHT22;63419;42.262;12.210;2023-02-04T14:22:31;16.90;99.90
74869;DHT22;63419;42.262;12.210;2023-02-04T14:24:58;17.20;99.90
74869;DHT22;63419;42.262;12.210;2023-02-04T14:27:25;18.30;99.10
74869;DHT22;63419;42.262;12.210;2023-02-04T14:29:53;19.10;98.50
74869;DHT22;63419;42.262;12.210;2023-02-04T14:32:20;20.00;96.30
74869;DHT22;63419;42.262;12.210;2023-02-04T14:34:47;18.50;96.40
74869;DHT22;63419;42.262;12.210;2023-02-04T14:37:14;17.00;98.80
74869;DHT22;63419;42.262;12.210;2023-02-04T14:39:41;18.00;98.80
74869;DHT22;63419;42.262;12.210;2023-02-04T14:42:09;18.80;98.00
74869;DHT22;63419;42.262;12.210;2023-02-04T14:44:36;17.90;97.90
74869;DHT22;63419;42.262;12.210;2023-02-04T14:47:03;18.40;99.00
74869;DHT22;63419;42.262;12.210;2023-02-04T14:49:30;18.80;98.00
74869;DHT22;63419;42.262;12.210;2023-02-04T14:51:58;19.00;98.10
74869;DHT22;63419;42.262;12.210;2023-02-04T14:54:25;19.20;98.20
74869;DHT22;63419;42.262;12.210;2023-02-04T14:56:53;19.50;98.00
74869;DHT22;63419;42.262;12.210;2023-02-04T14:59:20;18.80;96.70
74869;DHT22;63419;42.262;12.210;2023-02-04T15:01:47;18.10;97.00
74869;DHT22;63419;42.262;12.210;2023-02-04T15:04:14;18.60;97.40
74869;DHT22;63419;42.262;12.210;2023-02-04T15:06:41;17.60;99.90
74869;DHT22;63419;42.262;12.210;2023-02-04T15:09:08;17.90;99.10
74869;DHT22;63419;42.262;12.210;2023-02-04T15:11:36;17.20;99.90
74869;DHT22;63419;42.262;12.210;2023-02-04T15:14:03;16.50;99.90
74869;DHT22;63419;42.262;12.210;2023-02-04T15:16:30;17.20;99.90
74869;DHT22;63419;42.262;12.210;2023-02-04T15:18:58;16.80;99.90
74869;DHT22;63419;42.262;12.210;2023-02-04T15:21:25;15.80;99.90
74869;DHT22;63419;42.262;12.210;2023-02-04T15:23:53;15.90;99.90
74869;DHT22;63419;42.262;12.210;2023-02-04T15:26:20;16.50;99.90
74869;DHT22;63419;42.262;12.210;2023-02-04T15:28:48;16.40;99.90
74869;DHT22;63419;42.262;12.210;2023-02-04T15:31:15;16.70;99.90
74869;DHT22;63419;42.262;12.210;2023-02-04T15:33:43;16.40;99.90
74869;DHT22;63419;42.262;12.210;2023-02-04T15:36:10;15.70;99.90
74869;DHT22;63419;42.262;12.210;2023-02-04T15:38:37;15.60;99.90
74869;DHT22;63419;42.262;12.210;2023-02-04T15:41:05;15.50;99.90
74869;DHT22;63419;42.262;12.210;2023-02-04T15:43:32;15.70;99.90
74869;DHT22;63419;42.262;12.210;2023-02-04T15:45:59;16.10;99.90
74869;DHT22;63419;42.262;12.210;2023-02-04T15:48:26;16.20;99.90
74869;DHT22;63419;42.262;12.210;2023-02-04T15:50:56;16.80;99.90
74869;DHT22;63419;42.262;12.210;2023-02-04T15:53:24;16.30;99.90
74869;DHT22;63419;42.262;12.210;2023-02-04T15:55:51;16.50;99.90
74869;DHT22;63419;42.262;12.210;2023-02-04T15:58:19;16.60;99.90
74869;DHT22;63419;42.262;12.210;2023-02-04T16:00:47;16.20;99.90
74869;DHT22;63419;42.262;12.210;2023-02-04T16:03:17;15.60;99.90
74869;DHT22;63419;42.262;12.210;2023-02-04T16:05:44;15.60;99.90
74869;DHT22;63419;42.262;12.210;2023-02-04T16:08:11;15.50;99.90
74869;DHT22;63419;42.262;12.210;2023-02-04T16:10:38;15.20;99.90
74869;DHT22;63419;42.262;12.210;2023-02-04T16:13:05;14.90;99.90
74869;DHT22;63419;42.262;12.210;2023-02-04T16:15:35;14.20;99.90
74869;DHT22;63419;42.262;12.210;2023-02-04T16:18:03;14.20;99.90
74869;DHT22;63419;42.262;12.210;2023-02-04T16:20:30;13.90;99.90
74869;DHT22;63419;42.262;12.210;2023-02-04T16:22:57;13.30;99.90
74869;DHT22;63419;42.262;12.210;2023-02-04T16:25:25;13.10;99.90
74869;DHT22;63419;42.262;12.210;2023-02-04T16:27:52;12.80;99.90
74869;DHT22;63419;42.262;12.210;2023-02-04T16:30:19;12.50;99.90
74869;DHT22;63419;42.262;12.210;2023-02-04T16:32:46;12.40;99.90
74869;DHT22;63419;42.262;12.210;2023-02-04T16:35:13;12.40;99.90
74869;DHT22;63419;42.262;12.210;2023-02-04T16:37:40;12.40;99.90
74869;DHT22;63419;42.262;12.210;2023-02-04T16:40:11;12.40;99.90
74869;DHT22;63419;42.262;12.210;2023-02-04T16:42:39;12.20;99.90
74869;DHT22;63419;42.262;12.210;2023-02-04T16:45:06;12.10;99.90
74869;DHT22;63419;42.262;12.210;2023-02-04T16:47:34;12.10;99.90
74869;DHT22;63419;42.262;12.210;2023-02-04T16:50:02;12.00;99.90
74869;DHT22;63419;42.262;12.210;2023-02-04T16:52:30;11.90;99.90
74869;DHT22;63419;42.262;12.210;2023-02-04T16:54:58;11.80;99.90
74869;DHT22;63419;42.262;12.210;2023-02-04T16:57:25;11.70;99.90
74869;DHT22;63419;42.262;12.210;2023-02-04T16:59:52;11.70;99.90
74869;DHT22;63419;42.262;12.210;2023-02-04T17:02:19;11.60;99.90
74869;DHT22;63419;42.262;12.210;2023-02-04T17:04:46;11.50;99.90
74869;DHT22;63419;42.262;12.210;2023-02-04T17:07:14;11.50;99.90
74869;DHT22;63419;42.262;12.210;2023-02-04T17:09:41;11.40;99.90
74869;DHT22;63419;42.262;12.210;2023-02-04T17:12:09;11.20;99.90
74869;DHT22;63419;42.262;12.210;2023-02-04T17:14:36;11.20;99.90
74869;DHT22;63419;42.262;12.210;2023-02-04T17:17:06;11.10;99.90
74869;DHT22;63419;42.262;12.210;2023-02-04T17:19:33;11.00;99.90
74869;DHT22;63419;42.262;12.210;2023-02-04T17:22:01;10.80;99.90
74869;DHT22;63419;42.262;12.210;2023-02-04T17:24:28;10.70;99.90
74869;DHT22;63419;42.262;12.210;2023-02-04T17:26:55;10.70;99.90
74869;DHT22;63419;42.262;12.210;2023-02-04T17:29:22;10.60;99.90
74869;DHT22;63419;42.262;12.210;2023-02-04T17:31:50;10.40;99.90
74869;DHT22;63419;42.262;12.210;2023-02-04T17:34:18;10.30;99.90
74869;DHT22;63419;42.262;12.210;2023-02-04T17:36:45;10.20;99.90
74869;DHT22;63419;42.262;12.210;2023-02-04T17:39:13;10.20;99.90
74869;DHT22;63419;42.262;12.210;2023-02-04T17:41:40;10.10;99.90
74869;DHT22;63419;42.262;12.210;2023-02-04T17:44:07;10.10;99.90
74869;DHT22;63419;42.262;12.210;2023-02-04T17:46:34;10.20;99.90
74869;DHT22;63419;42.262;12.210;2023-02-04T17:49:02;10.40;99.90
74869;DHT22;63419;42.262;12.210;2023-02-04T17:51:29;10.50;99.90
74869;DHT22;63419;42.262;12.210;2023-02-04T17:53:57;10.60;99.90
74869;DHT22;63419;42.262;12.210;2023-02-04T17:56:24;10.50;99.90
74869;DHT22;63419;42.262;12.210;2023-02-04T17:58:53;10.60;99.90
74869;DHT22;63419;42.262;12.210;2023-02-04T18:01:21;10.70;99.90
74869;DHT22;63419;42.262;12.210;2023-02-04T18:03:51;10.70;99.90
74869;DHT22;63419;42.262;12.210;2023-02-04T18:06:19;10.60;99.90
74869;DHT22;63419;42.262;12.210;2023-02-04T18:08:50;10.50;99.90
74869;DHT22;63419;42.262;12.210;2023-02-04T18:11:23;10.40;99.90
74869;DHT22;63419;42.262;12.210;2023-02-04T18:14:00;10.20;99.90
74869;DHT22;63419;42.262;12.210;2023-02-04T18:16:38;10.10;99.90
74869;DHT22;63419;42.262;12.210;2023-02-04T18:19:34;10.00;99.90
74869;DHT22;63419;42.262;12.210;2023-02-04T18:22:20;9.80;99.90
74869;DHT22;63419;42.262;12.210;2023-02-04T18:24:50;9.60;99.90
74869;DHT22;63419;42.262;12.210;2023-02-04T18:27:23;9.50;99.90
74869;DHT22;63419;42.262;12.210;2023-02-04T18:29:55;9.30;99.90
74869;DHT22;63419;42.262;12.210;2023-02-04T18:32:38;9.40;99.90